sensor_id;sensor_type;location;lat;lon;timestamp;temperature;humidity
21246;DHT22;10781;50.928;4.440;2023-01-15T00:01:02;9.50;99.90
21246;DHT22;10781;50.928;4.440;2023-01-15T00:03:28;9.40;99.90
21246;DHT22;10781;50.928;4.440;2023-01-15T00:05:54;9.30;99.90
21246;DHT22;10781;50.928;4.440;2023-01-15T00:08:20;9.40;99.90
21246;DHT22;10781;50.928;4.440;2023-01-15T00:10:46;9.40;99.90
21246;DHT22;10781;50.928;4.440;2023-01-15T00:13:11;9.30;99.90
21246;DHT22;10781;50.928;4.440;2023-01-15T00:15:37;9.30;99.90
21246;DHT22;10781;50.928;4.440;2023-01-15T00:18:03;9.50;99.90
21246;DHT22;10781;50.928;4.440;2023-01-15T00:20:29;9.50;99.90
21246;DHT22;10781;50.928;4.440;2023-01-15T00:22:54;9.70;99.90
21246;DHT22;10781;50.928;4.440;2023-01-15T00:25:20;9.70;99.90
21246;DHT22;10781;50.928;4.440;2023-01-15T00:28:05;9.60;99.90
21246;DHT22;10781;50.928;4.440;2023-01-15T00:30:30;9.50;99.90
21246;DHT22;10781;50.928;4.440;2023-01-15T00:32:57;9.50;99.90
21246;DHT22;10781;50.928;4.440;2023-01-15T00:35:23;9.50;99.90
21246;DHT22;10781;50.928;4.440;2023-01-15T00:37:49;9.40;99.90
21246;DHT22;10781;50.928;4.440;2023-01-15T00:40:18;9.30;99.90
21246;DHT22;10781;50.928;4.440;2023-01-15T00:42:44;9.30;99.90
21246;DHT22;10781;50.928;4.440;2023-01-15T00:45:10;9.20;99.90
21246;DHT22;10781;50.928;4.440;2023-01-15T00:47:42;9.20;99.90
21246;DHT22;10781;50.928;4.440;2023-01-15T00:50:11;9.30;99.90
21246;DHT22;10781;50.928;4.440;2023-01-15T00:52:37;9.30;99.90
21246;DHT22;10781;50.928;4.440;2023-01-15T00:55:03;9.20;99.90
21246;DHT22;10781;50.928;4.440;2023-01-15T00:57:29;9.20;99.90
21246;DHT22;10781;50.928;4.440;2023-01-15T00:59:54;9.10;99.90
21246;DHT22;10781;50.928;4.440;2023-01-15T01:02:20;9.10;99.90
21246;DHT22;10781;50.928;4.440;2023-01-15T01:04:46;9.20;99.90
21246;DHT22;10781;50.928;4.440;2023-01-15T01:07:12;9.10;99.90
21246;DHT22;10781;50.928;4.440;2023-01-15T01:09:38;9.10;99.90
21246;DHT22;10781;50.928;4.440;2023-01-15T01:12:04;9.00;99.90
21246;DHT22;10781;50.928;4.440;2023-01-15T01:14:29;9.10;99.90
21246;DHT22;10781;50.928;4.440;2023-01-15T01:16:55;9.00;99.90
21246;DHT22;10781;50.928;4.440;2023-01-15T01:19:22;9.00;99.90
21246;DHT22;10781;50.928;4.440;2023-01-15T01:21:50;9.10;99.90
21246;DHT22;10781;50.928;4.440;2023-01-15T01:24:18;9.20;99.90
21246;DHT22;10781;50.928;4.440;2023-01-15T01:26:45;9.40;99.90
21246;DHT22;10781;50.928;4.440;2023-01-15T01:29:16;9.40;99.90
21246;DHT22;10781;50.928;4.440;2023-01-15T01:31:42;9.30;99.90
21246;DHT22;10781;50.928;4.440;2023-01-15T01:34:08;9.40;99.90
21246;DHT22;10781;50.928;4.440;2023-01-15T01:36:36;9.40;99.90
21246;DHT22;10781;50.928;4.440;2023-01-15T01:39:06;9.30;99.90
21246;DHT22;10781;50.928;4.440;2023-01-15T01:41:33;9.30;99.90
21246;DHT22;10781;50.928;4.440;2023-01-15T01:44:05;9.20;99.90
21246;DHT22;10781;50.928;4.440;2023-01-15T01:46:34;9.00;99.90
21246;DHT22;10781;50.928;4.440;2023-01-15T01:49:08;9.10;99.90
21246;DHT22;10781;50.928;4.440;2023-01-15T01:51:42;9.10;99.90
21246;DHT22;10781;50.928;4.440;2023-01-15T01:54:10;9.00;99.90
21246;DHT22;10781;50.928;4.440;2023-01-15T01:56:38;8.90;99.90
21246;DHT22;10781;50.928;4.440;2023-01-15T01:59:05;8.90;99.90
21246;DHT22;10781;50.928;4.440;2023-01-15T02:01:31;8.90;99.90
21246;DHT22;10781;50.928;4.440;2023-01-15T02:03:57;9.00;99.90
21246;DHT22;10781;50.928;4.440;2023-01-15T02:06:24;9.10;99.90
21246;DHT22;10781;50.928;4.440;2023-01-15T02:08:51;9.20;99.90
21246;DHT22;10781;50.928;4.440;2023-01-15T02:11:20;9.20;99.90
21246;DHT22;10781;50.928;4.440;2023-01-15T02:16:22;9.20;99.90
21246;DHT22;10781;50.928;4.440;2023-01-15T02:21:55;9.30;99.90
21246;DHT22;10781;50.928;4.440;2023-01-15T02:25:46;9.20;99.90
21246;DHT22;10781;50.928;4.440;2023-01-15T02:27:46;9.30;99.90
21246;DHT22;10781;50.928;4.440;2023-01-15T02:30:19;9.30;99.90
21246;DHT22;10781;50.928;4.440;2023-01-15T02:32:53;9.10;99.90
21246;DHT22;10781;50.928;4.440;2023-01-15T02:35:44;9.00;99.90
21246;DHT22;10781;50.928;4.440;2023-01-15T02:38:14;9.20;99.90
21246;DHT22;10781;50.928;4.440;2023-01-15T02:40:42;9.20;99.90
21246;DHT22;10781;50.928;4.440;2023-01-15T02:43:09;9.00;99.90
21246;DHT22;10781;50.928;4.440;2023-01-15T02:45:40;9.00;99.90
21246;DHT22;10781;50.928;4.440;2023-01-15T02:48:11;9.00;99.90
21246;DHT22;10781;50.928;4.440;2023-01-15T02:50:41;8.90;99.90
21246;DHT22;10781;50.928;4.440;2023-01-15T02:53:13;8.80;99.90
21246;DHT22;10781;50.928;4.440;2023-01-15T02:55:45;8.70;99.90
21246;DHT22;10781;50.928;4.440;2023-01-15T02:58:19;8.70;99.90
21246;DHT22;10781;50.928;4.440;2023-01-15T03:00:48;8.70;99.90
21246;DHT22;10781;50.928;4.440;2023-01-15T03:06:01;8.50;99.90
21246;DHT22;10781;50.928;4.440;2023-01-15T03:08:29;8.40;99.90
21246;DHT22;10781;50.928;4.440;2023-01-15T03:19:00;8.40;99.90
21246;DHT22;10781;50.928;4.440;2023-01-15T03:24:03;8.50;99.90
21246;DHT22;10781;50.928;4.440;2023-01-15T03:26:30;8.40;99.90
21246;DHT22;10781;50.928;4.440;2023-01-15T03:28:56;8.40;99.90
21246;DHT22;10781;50.928;4.440;2023-01-15T03:31:23;8.40;99.90
21246;DHT22;10781;50.928;4.440;2023-01-15T03:33:49;8.30;99.90
21246;DHT22;10781;50.928;4.440;2023-01-15T03:36:14;8.40;99.90
21246;DHT22;10781;50.928;4.440;2023-01-15T03:38:40;8.30;99.90
21246;DHT22;10781;50.928;4.440;2023-01-15T03:41:33;8.40;99.90
21246;DHT22;10781;50.928;4.440;2023-01-15T03:55:26;8.30;99.90
21246;DHT22;10781;50.928;4.440;2023-01-15T03:58:00;8.20;99.90
21246;DHT22;10781;50.928;4.440;2023-01-15T04:00:31;8.40;99.90
21246;DHT22;10781;50.928;4.440;2023-01-15T04:03:00;8.40;99.90
21246;DHT22;10781;50.928;4.440;2023-01-15T04:05:27;8.20;99.90
21246;DHT22;10781;50.928;4.440;2023-01-15T04:07:53;8.20;99.90
21246;DHT22;10781;50.928;4.440;2023-01-15T04:10:20;8.20;99.90
21246;DHT22;10781;50.928;4.440;2023-01-15T04:12:46;8.20;99.90
21246;DHT22;10781;50.928;4.440;2023-01-15T04:15:12;8.30;99.90
21246;DHT22;10781;50.928;4.440;2023-01-15T04:17:38;8.30;99.90
21246;DHT22;10781;50.928;4.440;2023-01-15T04:20:05;8.20;99.90
21246;DHT22;10781;50.928;4.440;2023-01-15T04:22:31;8.20;99.90
21246;DHT22;10781;50.928;4.440;2023-01-15T04:24:56;8.10;99.90
21246;DHT22;10781;50.928;4.440;2023-01-15T04:27:22;8.00;99.90
21246;DHT22;10781;50.928;4.440;2023-01-15T04:29:48;8.00;99.90
21246;DHT22;10781;50.928;4.440;2023-01-15T04:32:14;8.00;99.90
21246;DHT22;10781;50.928;4.440;2023-01-15T04:34:40;8.10;99.90
21246;DHT22;10781;50.928;4.440;2023-01-15T04:37:05;8.00;99.90
21246;DHT22;10781;50.928;4.440;2023-01-15T04:39:31;8.00;99.90
21246;DHT22;10781;50.928;4.440;2023-01-15T04:41:57;7.90;99.90
21246;DHT22;10781;50.928;4.440;2023-01-15T04:44:41;7.90;99.90
21246;DHT22;10781;50.928;4.440;2023-01-15T04:47:07;8.00;99.90
21246;DHT22;10781;50.928;4.440;2023-01-15T04:49:33;8.00;99.90
21246;DHT22;10781;50.928;4.440;2023-01-15T04:51:59;7.90;99.90
21246;DHT22;10781;50.928;4.440;2023-01-15T04:54:24;7.90;99.90
21246;DHT22;10781;50.928;4.440;2023-01-15T04:56:52;7.80;99.90
21246;DHT22;10781;50.928;4.440;2023-01-15T04:59:20;7.80;99.90
21246;DHT22;10781;50.928;4.440;2023-01-15T05:01:47;7.90;99.90
21246;DHT22;10781;50.928;4.440;2023-01-15T05:04:12;7.90;99.90
21246;DHT22;10781;50.928;4.440;2023-01-15T05:06:38;7.90;99.90
21246;DHT22;10781;50.928;4.440;2023-01-15T05:09:04;7.90;99.90
21246;DHT22;10781;50.928;4.440;2023-01-15T05:11:30;8.00;99.90
21246;DHT22;10781;50.928;4.440;2023-01-15T05:13:56;8.00;99.90
21246;DHT22;10781;50.928;4.440;2023-01-15T05:16:24;8.00;99.90
21246;DHT22;10781;50.928;4.440;2023-01-15T05:18:52;7.90;99.90
21246;DHT22;10781;50.928;4.440;2023-01-15T05:21:26;7.80;99.90
21246;DHT22;10781;50.928;4.440;2023-01-15T05:23:54;7.70;99.90
21246;DHT22;10781;50.928;4.440;2023-01-15T05:26:20;7.90;99.90
21246;DHT22;10781;50.928;4.440;2023-01-15T05:28:46;7.80;99.90
21246;DHT22;10781;50.928;4.440;2023-01-15T05:31:15;7.80;99.90
21246;DHT22;10781;50.928;4.440;2023-01-15T05:33:42;7.80;99.90
21246;DHT22;10781;50.928;4.440;2023-01-15T05:36:13;7.80;99.90
21246;DHT22;10781;50.928;4.440;2023-01-15T05:38:40;7.80;99.90
21246;DHT22;10781;50.928;4.440;2023-01-15T05:41:17;7.90;99.90
21246;DHT22;10781;50.928;4.440;2023-01-15T05:44:12;7.80;99.90
21246;DHT22;10781;50.928;4.440;2023-01-15T05:46:40;7.70;99.90
21246;DHT22;10781;50.928;4.440;2023-01-15T05:49:09;7.70;99.90
21246;DHT22;10781;50.928;4.440;2023-01-15T05:51:36;7.70;99.90
21246;DHT22;10781;50.928;4.440;2023-01-15T05:54:03;7.70;99.90
21246;DHT22;10781;50.928;4.440;2023-01-15T05:56:29;7.70;99.90
21246;DHT22;10781;50.928;4.440;2023-01-15T05:58:55;7.50;99.90
21246;DHT22;10781;50.928;4.440;2023-01-15T06:01:21;7.40;99.90
21246;DHT22;10781;50.928;4.440;2023-01-15T06:03:47;7.20;99.90
21246;DHT22;10781;50.928;4.440;2023-01-15T06:06:15;7.10;99.90
21246;DHT22;10781;50.928;4.440;2023-01-15T06:08:41;6.80;99.90
21246;DHT22;10781;50.928;4.440;2023-01-15T06:11:07;6.50;99.90
21246;DHT22;10781;50.928;4.440;2023-01-15T06:13:33;6.30;99.90
21246;DHT22;10781;50.928;4.440;2023-01-15T06:16:00;6.30;99.90
21246;DHT22;10781;50.928;4.440;2023-01-15T06:18:26;6.20;99.90
21246;DHT22;10781;50.928;4.440;2023-01-15T06:20:51;6.10;99.90
21246;DHT22;10781;50.928;4.440;2023-01-15T06:23:17;6.00;99.90
21246;DHT22;10781;50.928;4.440;2023-01-15T06:25:43;6.00;99.90
21246;DHT22;10781;50.928;4.440;2023-01-15T06:28:10;6.00;99.90
21246;DHT22;10781;50.928;4.440;2023-01-15T06:30:37;5.90;99.90
21246;DHT22;10781;50.928;4.440;2023-01-15T06:33:04;6.10;99.90
21246;DHT22;10781;50.928;4.440;2023-01-15T06:35:30;6.10;99.90
21246;DHT22;10781;50.928;4.440;2023-01-15T06:37:56;6.10;99.90
21246;DHT22;10781;50.928;4.440;2023-01-15T06:40:22;6.00;99.90
21246;DHT22;10781;50.928;4.440;2023-01-15T06:42:48;6.00;99.90
21246;DHT22;10781;50.928;4.440;2023-01-15T06:45:38;6.00;99.90
21246;DHT22;10781;50.928;4.440;2023-01-15T06:48:24;6.00;99.90
21246;DHT22;10781;50.928;4.440;2023-01-15T06:50:49;6.10;99.90
21246;DHT22;10781;50.928;4.440;2023-01-15T06:53:15;6.00;99.90
21246;DHT22;10781;50.928;4.440;2023-01-15T06:55:41;6.10;99.90
21246;DHT22;10781;50.928;4.440;2023-01-15T06:58:07;6.10;99.90
21246;DHT22;10781;50.928;4.440;2023-01-15T07:00:32;6.00;99.90
21246;DHT22;10781;50.928;4.440;2023-01-15T07:02:59;6.10;99.90
21246;DHT22;10781;50.928;4.440;2023-01-15T07:05:25;6.20;99.90
21246;DHT22;10781;50.928;4.440;2023-01-15T07:07:51;6.20;99.90
21246;DHT22;10781;50.928;4.440;2023-01-15T07:10:17;6.30;99.90
21246;DHT22;10781;50.928;4.440;2023-01-15T07:12:42;6.20;99.90
21246;DHT22;10781;50.928;4.440;2023-01-15T07:15:08;6.10;99.90
21246;DHT22;10781;50.928;4.440;2023-01-15T07:17:34;6.20;99.90
21246;DHT22;10781;50.928;4.440;2023-01-15T07:20:00;6.30;99.90
21246;DHT22;10781;50.928;4.440;2023-01-15T07:22:26;6.20;99.90
21246;DHT22;10781;50.928;4.440;2023-01-15T07:24:51;6.20;99.90
21246;DHT22;10781;50.928;4.440;2023-01-15T07:27:17;6.20;99.90
21246;DHT22;10781;50.928;4.440;2023-01-15T07:29:43;6.20;99.90
21246;DHT22;10781;50.928;4.440;2023-01-15T07:32:09;6.20;99.90
21246;DHT22;10781;50.928;4.440;2023-01-15T07:34:35;6.30;99.90
21246;DHT22;10781;50.928;4.440;2023-01-15T07:37:00;6.30;99.90
21246;DHT22;10781;50.928;4.440;2023-01-15T07:39:26;6.30;99.90
21246;DHT22;10781;50.928;4.440;2023-01-15T07:41:52;6.30;99.90
21246;DHT22;10781;50.928;4.440;2023-01-15T07:44:36;6.40;99.90
21246;DHT22;10781;50.928;4.440;2023-01-15T07:47:23;6.50;99.90
21246;DHT22;10781;50.928;4.440;2023-01-15T07:50:10;6.40;99.90
21246;DHT22;10781;50.928;4.440;2023-01-15T07:52:36;6.40;99.90
21246;DHT22;10781;50.928;4.440;2023-01-15T07:55:02;6.40;99.90
21246;DHT22;10781;50.928;4.440;2023-01-15T07:57:28;6.40;99.90
21246;DHT22;10781;50.928;4.440;2023-01-15T07:59:54;6.40;99.90
21246;DHT22;10781;50.928;4.440;2023-01-15T08:02:21;6.50;99.90
21246;DHT22;10781;50.928;4.440;2023-01-15T08:04:46;6.40;99.90
21246;DHT22;10781;50.928;4.440;2023-01-15T08:07:14;6.40;99.90
21246;DHT22;10781;50.928;4.440;2023-01-15T08:09:40;6.30;99.90
21246;DHT22;10781;50.928;4.440;2023-01-15T08:12:06;6.30;99.90
21246;DHT22;10781;50.928;4.440;2023-01-15T08:14:50;6.40;99.90
21246;DHT22;10781;50.928;4.440;2023-01-15T08:17:35;6.50;99.90
21246;DHT22;10781;50.928;4.440;2023-01-15T08:20:03;6.40;99.90
21246;DHT22;10781;50.928;4.440;2023-01-15T08:22:30;6.30;99.90
21246;DHT22;10781;50.928;4.440;2023-01-15T08:24:55;6.40;99.90
21246;DHT22;10781;50.928;4.440;2023-01-15T08:27:21;6.40;99.90
21246;DHT22;10781;50.928;4.440;2023-01-15T08:29:47;6.50;99.90
21246;DHT22;10781;50.928;4.440;2023-01-15T08:32:13;6.50;99.90
21246;DHT22;10781;50.928;4.440;2023-01-15T08:34:38;6.60;99.90
21246;DHT22;10781;50.928;4.440;2023-01-15T08:37:04;6.70;99.90
21246;DHT22;10781;50.928;4.440;2023-01-15T08:39:30;6.80;99.90
21246;DHT22;10781;50.928;4.440;2023-01-15T08:41:56;6.80;99.90
21246;DHT22;10781;50.928;4.440;2023-01-15T08:44:22;6.80;99.90
21246;DHT22;10781;50.928;4.440;2023-01-15T08:46:49;6.80;99.90
21246;DHT22;10781;50.928;4.440;2023-01-15T08:49:15;6.80;99.90
21246;DHT22;10781;50.928;4.440;2023-01-15T08:51:43;6.80;99.90
21246;DHT22;10781;50.928;4.440;2023-01-15T08:54:17;6.70;99.90
21246;DHT22;10781;50.928;4.440;2023-01-15T08:56:43;6.80;99.90
21246;DHT22;10781;50.928;4.440;2023-01-15T08:59:09;6.90;99.90
21246;DHT22;10781;50.928;4.440;2023-01-15T09:01:37;6.90;99.90
21246;DHT22;10781;50.928;4.440;2023-01-15T09:04:02;6.80;99.90
21246;DHT22;10781;50.928;4.440;2023-01-15T09:06:31;6.80;99.90
21246;DHT22;10781;50.928;4.440;2023-01-15T09:09:00;6.90;99.90
21246;DHT22;10781;50.928;4.440;2023-01-15T09:11:29;7.00;99.90
21246;DHT22;10781;50.928;4.440;2023-01-15T09:13:55;7.00;99.90
21246;DHT22;10781;50.928;4.440;2023-01-15T09:16:20;6.90;99.90
21246;DHT22;10781;50.928;4.440;2023-01-15T09:18:46;6.90;99.90
21246;DHT22;10781;50.928;4.440;2023-01-15T09:21:12;6.90;99.90
21246;DHT22;10781;50.928;4.440;2023-01-15T09:23:38;6.90;99.90
21246;DHT22;10781;50.928;4.440;2023-01-15T09:26:05;7.00;99.90
21246;DHT22;10781;50.928;4.440;2023-01-15T09:28:33;7.00;99.90
21246;DHT22;10781;50.928;4.440;2023-01-15T09:30:59;7.00;99.90
21246;DHT22;10781;50.928;4.440;2023-01-15T09:33:24;7.00;99.90
21246;DHT22;10781;50.928;4.440;2023-01-15T09:35:51;7.00;99.90
21246;DHT22;10781;50.928;4.440;2023-01-15T09:38:20;7.00;99.90
21246;DHT22;10781;50.928;4.440;2023-01-15T09:40:50;7.10;99.90
21246;DHT22;10781;50.928;4.440;2023-01-15T09:46:17;7.00;99.90
21246;DHT22;10781;50.928;4.440;2023-01-15T09:49:19;7.00;99.90
21246;DHT22;10781;50.928;4.440;2023-01-15T09:55:01;7.10;99.90
21246;DHT22;10781;50.928;4.440;2023-01-15T09:57:30;7.20;99.90
21246;DHT22;10781;50.928;4.440;2023-01-15T09:59:57;7.10;99.90
21246;DHT22;10781;50.928;4.440;2023-01-15T10:02:42;7.10;99.90
21246;DHT22;10781;50.928;4.440;2023-01-15T10:06:00;7.20;99.90
21246;DHT22;10781;50.928;4.440;2023-01-15T10:08:29;7.10;99.90
21246;DHT22;10781;50.928;4.440;2023-01-15T10:11:39;7.00;99.90
21246;DHT22;10781;50.928;4.440;2023-01-15T10:14:42;7.00;99.90
21246;DHT22;10781;50.928;4.440;2023-01-15T10:17:21;6.90;99.90
21246;DHT22;10781;50.928;4.440;2023-01-15T10:19:48;7.00;99.90
21246;DHT22;10781;50.928;4.440;2023-01-15T10:25:02;7.00;99.90
21246;DHT22;10781;50.928;4.440;2023-01-15T10:27:30;7.00;99.90
21246;DHT22;10781;50.928;4.440;2023-01-15T10:30:05;7.00;99.90
21246;DHT22;10781;50.928;4.440;2023-01-15T10:32:45;6.90;99.90
21246;DHT22;10781;50.928;4.440;2023-01-15T10:35:20;6.90;99.90
21246;DHT22;10781;50.928;4.440;2023-01-15T10:38:08;6.80;99.90
21246;DHT22;10781;50.928;4.440;2023-01-15T10:43:44;6.80;99.90
21246;DHT22;10781;50.928;4.440;2023-01-15T10:46:17;6.90;99.90
21246;DHT22;10781;50.928;4.440;2023-01-15T10:51:16;7.10;99.90
21246;DHT22;10781;50.928;4.440;2023-01-15T10:56:32;7.30;99.90
21246;DHT22;10781;50.928;4.440;2023-01-15T11:01:36;7.50;99.90
21246;DHT22;10781;50.928;4.440;2023-01-15T11:04:03;7.50;99.90
21246;DHT22;10781;50.928;4.440;2023-01-15T11:06:30;7.60;99.90
21246;DHT22;10781;50.928;4.440;2023-01-15T11:08:57;7.60;99.90
21246;DHT22;10781;50.928;4.440;2023-01-15T11:11:48;7.70;99.90
21246;DHT22;10781;50.928;4.440;2023-01-15T11:17:21;7.70;99.90
21246;DHT22;10781;50.928;4.440;2023-01-15T11:22:40;7.90;99.90
21246;DHT22;10781;50.928;4.440;2023-01-15T11:25:05;8.00;99.90
21246;DHT22;10781;50.928;4.440;2023-01-15T11:27:34;8.10;99.90
21246;DHT22;10781;50.928;4.440;2023-01-15T11:30:03;8.30;99.90
21246;DHT22;10781;50.928;4.440;2023-01-15T11:32:36;8.40;99.90
21246;DHT22;10781;50.928;4.440;2023-01-15T11:37:33;8.40;99.90
21246;DHT22;10781;50.928;4.440;2023-01-15T11:40:03;8.50;99.90
21246;DHT22;10781;50.928;4.440;2023-01-15T11:42:36;8.40;99.90
21246;DHT22;10781;50.928;4.440;2023-01-15T11:45:22;8.20;99.90
21246;DHT22;10781;50.928;4.440;2023-01-15T11:48:21;8.30;99.90
21246;DHT22;10781;50.928;4.440;2023-01-15T11:51:13;8.60;99.90
21246;DHT22;10781;50.928;4.440;2023-01-15T11:53:49;8.60;99.90
21246;DHT22;10781;50.928;4.440;2023-01-15T11:56:19;8.90;99.90
21246;DHT22;10781;50.928;4.440;2023-01-15T11:58:54;8.80;99.90
21246;DHT22;10781;50.928;4.440;2023-01-15T12:01:46;8.90;99.90
21246;DHT22;10781;50.928;4.440;2023-01-15T12:04:32;8.80;99.90
21246;DHT22;10781;50.928;4.440;2023-01-15T12:07:00;8.70;99.90
21246;DHT22;10781;50.928;4.440;2023-01-15T12:09:36;8.70;99.90
21246;DHT22;10781;50.928;4.440;2023-01-15T12:26:10;8.60;99.90
21246;DHT22;10781;50.928;4.440;2023-01-15T12:31:57;8.70;99.90
21246;DHT22;10781;50.928;4.440;2023-01-15T12:34:41;8.70;99.90
21246;DHT22;10781;50.928;4.440;2023-01-15T12:37:13;8.50;99.90
21246;DHT22;10781;50.928;4.440;2023-01-15T12:39:46;8.40;99.90
21246;DHT22;10781;50.928;4.440;2023-01-15T12:42:16;8.50;99.90
21246;DHT22;10781;50.928;4.440;2023-01-15T12:45:06;8.40;99.90
21246;DHT22;10781;50.928;4.440;2023-01-15T12:47:35;8.20;99.90
21246;DHT22;10781;50.928;4.440;2023-01-15T12:56:03;8.50;99.90
21246;DHT22;10781;50.928;4.440;2023-01-15T13:07:02;8.70;99.90
21246;DHT22;10781;50.928;4.440;2023-01-15T13:09:55;8.70;99.90
21246;DHT22;10781;50.928;4.440;2023-01-15T13:12:22;8.80;99.90
21246;DHT22;10781;50.928;4.440;2023-01-15T13:14:49;8.80;99.90
21246;DHT22;10781;50.928;4.440;2023-01-15T13:34:38;8.50;99.90
21246;DHT22;10781;50.928;4.440;2023-01-15T13:37:17;8.70;99.90
21246;DHT22;10781;50.928;4.440;2023-01-15T13:39:44;8.70;99.90
21246;DHT22;10781;50.928;4.440;2023-01-15T13:42:19;8.80;99.90
21246;DHT22;10781;50.928;4.440;2023-01-15T13:45:02;8.80;99.90
21246;DHT22;10781;50.928;4.440;2023-01-15T13:47:34;8.60;99.90
21246;DHT22;10781;50.928;4.440;2023-01-15T13:50:04;8.50;99.90
21246;DHT22;10781;50.928;4.440;2023-01-15T13:52:33;8.10;99.90
21246;DHT22;10781;50.928;4.440;2023-01-15T13:55:41;7.90;99.90
21246;DHT22;10781;50.928;4.440;2023-01-15T13:58:20;7.90;99.90
21246;DHT22;10781;50.928;4.440;2023-01-15T14:09:26;7.80;99.90
21246;DHT22;10781;50.928;4.440;2023-01-15T14:12:26;7.60;99.90
21246;DHT22;10781;50.928;4.440;2023-01-15T14:18:33;7.40;99.90
21246;DHT22;10781;50.928;4.440;2023-01-15T14:27:06;7.30;99.90
21246;DHT22;10781;50.928;4.440;2023-01-15T14:29:58;7.30;99.90
21246;DHT22;10781;50.928;4.440;2023-01-15T14:32:51;7.30;99.90
21246;DHT22;10781;50.928;4.440;2023-01-15T14:35:20;7.40;99.90
21246;DHT22;10781;50.928;4.440;2023-01-15T14:38:07;7.30;99.90
21246;DHT22;10781;50.928;4.440;2023-01-15T14:40:36;7.30;99.90
21246;DHT22;10781;50.928;4.440;2023-01-15T14:43:16;7.50;99.90
21246;DHT22;10781;50.928;4.440;2023-01-15T14:45:44;7.40;99.90
21246;DHT22;10781;50.928;4.440;2023-01-15T14:48:34;7.30;99.90
21246;DHT22;10781;50.928;4.440;2023-01-15T14:51:12;7.40;99.90
21246;DHT22;10781;50.928;4.440;2023-01-15T14:56:27;7.40;99.90
21246;DHT22;10781;50.928;4.440;2023-01-15T15:01:43;7.50;99.90
21246;DHT22;10781;50.928;4.440;2023-01-15T15:06:57;7.30;99.90
21246;DHT22;10781;50.928;4.440;2023-01-15T15:15:15;7.30;99.90
21246;DHT22;10781;50.928;4.440;2023-01-15T15:18:06;7.20;99.90
21246;DHT22;10781;50.928;4.440;2023-01-15T15:20:43;7.20;99.90
21246;DHT22;10781;50.928;4.440;2023-01-15T15:28:59;7.30;99.90
21246;DHT22;10781;50.928;4.440;2023-01-15T15:31:27;7.30;99.90
21246;DHT22;10781;50.928;4.440;2023-01-15T15:33:54;7.20;99.90
21246;DHT22;10781;50.928;4.440;2023-01-15T15:36:25;7.20;99.90
21246;DHT22;10781;50.928;4.440;2023-01-15T15:38:53;7.30;99.90
21246;DHT22;10781;50.928;4.440;2023-01-15T15:41:20;7.30;99.90
21246;DHT22;10781;50.928;4.440;2023-01-15T15:44:14;7.20;99.90
21246;DHT22;10781;50.928;4.440;2023-01-15T15:47:15;7.20;99.90
21246;DHT22;10781;50.928;4.440;2023-01-15T15:50:00;7.10;99.90
21246;DHT22;10781;50.928;4.440;2023-01-15T15:52:25;7.00;99.90
21246;DHT22;10781;50.928;4.440;2023-01-15T15:55:02;7.00;99.90
21246;DHT22;10781;50.928;4.440;2023-01-15T15:57:34;6.90;99.90
21246;DHT22;10781;50.928;4.440;2023-01-15T16:00:02;6.90;99.90
21246;DHT22;10781;50.928;4.440;2023-01-15T16:02:36;6.80;99.90
21246;DHT22;10781;50.928;4.440;2023-01-15T16:07:44;6.70;99.90
21246;DHT22;10781;50.928;4.440;2023-01-15T16:10:14;6.60;99.90
21246;DHT22;10781;50.928;4.440;2023-01-15T16:12:54;6.60;99.90
21246;DHT22;10781;50.928;4.440;2023-01-15T16:15:28;6.60;99.90
21246;DHT22;10781;50.928;4.440;2023-01-15T16:17:55;6.70;99.90
21246;DHT22;10781;50.928;4.440;2023-01-15T16:20:22;6.70;99.90
21246;DHT22;10781;50.928;4.440;2023-01-15T16:22:57;6.50;99.90
21246;DHT22;10781;50.928;4.440;2023-01-15T16:25:25;6.50;99.90
21246;DHT22;10781;50.928;4.440;2023-01-15T16:27:53;6.50;99.90
21246;DHT22;10781;50.928;4.440;2023-01-15T16:30:19;6.40;99.90
21246;DHT22;10781;50.928;4.440;2023-01-15T16:32:45;6.40;99.90
21246;DHT22;10781;50.928;4.440;2023-01-15T16:35:19;6.40;99.90
21246;DHT22;10781;50.928;4.440;2023-01-15T16:37:54;6.40;99.90
21246;DHT22;10781;50.928;4.440;2023-01-15T16:40:42;6.30;99.90
21246;DHT22;10781;50.928;4.440;2023-01-15T16:43:16;6.20;99.90
21246;DHT22;10781;50.928;4.440;2023-01-15T16:46:02;6.30;99.90
21246;DHT22;10781;50.928;4.440;2023-01-15T16:53:57;6.20;99.90
21246;DHT22;10781;50.928;4.440;2023-01-15T16:56:49;6.30;99.90
21246;DHT22;10781;50.928;4.440;2023-01-15T17:02:15;6.20;99.90
21246;DHT22;10781;50.928;4.440;2023-01-15T17:04:43;6.00;99.90
21246;DHT22;10781;50.928;4.440;2023-01-15T17:09:52;6.00;99.90
21246;DHT22;10781;50.928;4.440;2023-01-15T17:12:23;5.90;99.90
21246;DHT22;10781;50.928;4.440;2023-01-15T17:14:51;5.80;99.90
21246;DHT22;10781;50.928;4.440;2023-01-15T17:17:25;5.90;99.90
21246;DHT22;10781;50.928;4.440;2023-01-15T17:19:53;5.90;99.90
21246;DHT22;10781;50.928;4.440;2023-01-15T17:22:25;6.00;99.90
21246;DHT22;10781;50.928;4.440;2023-01-15T17:24:54;6.00;99.90
21246;DHT22;10781;50.928;4.440;2023-01-15T17:27:21;6.00;99.90
21246;DHT22;10781;50.928;4.440;2023-01-15T17:29:47;6.20;99.90
21246;DHT22;10781;50.928;4.440;2023-01-15T17:32:24;6.30;99.90
21246;DHT22;10781;50.928;4.440;2023-01-15T17:34:52;6.50;99.90
21246;DHT22;10781;50.928;4.440;2023-01-15T17:37:17;6.60;99.90
21246;DHT22;10781;50.928;4.440;2023-01-15T17:39:45;6.50;99.90
21246;DHT22;10781;50.928;4.440;2023-01-15T17:42:17;6.50;99.90
21246;DHT22;10781;50.928;4.440;2023-01-15T17:44:44;6.50;99.90
21246;DHT22;10781;50.928;4.440;2023-01-15T17:47:10;6.40;99.90
21246;DHT22;10781;50.928;4.440;2023-01-15T17:49:36;6.50;99.90
21246;DHT22;10781;50.928;4.440;2023-01-15T17:52:04;6.50;99.90
21246;DHT22;10781;50.928;4.440;2023-01-15T17:54:30;6.50;99.90
21246;DHT22;10781;50.928;4.440;2023-01-15T17:57:15;6.60;99.90
21246;DHT22;10781;50.928;4.440;2023-01-15T17:59:59;6.60;99.90
21246;DHT22;10781;50.928;4.440;2023-01-15T18:02:44;6.60;99.90
21246;DHT22;10781;50.928;4.440;2023-01-15T18:05:29;6.60;99.90
21246;DHT22;10781;50.928;4.440;2023-01-15T18:08:01;6.70;99.90
21246;DHT22;10781;50.928;4.440;2023-01-15T18:10:27;6.70;99.90
21246;DHT22;10781;50.928;4.440;2023-01-15T18:12:53;6.80;99.90
21246;DHT22;10781;50.928;4.440;2023-01-15T18:15:18;6.80;99.90
21246;DHT22;10781;50.928;4.440;2023-01-15T18:17:45;6.80;99.90
21246;DHT22;10781;50.928;4.440;2023-01-15T18:20:11;6.80;99.90
21246;DHT22;10781;50.928;4.440;2023-01-15T18:22:37;6.90;99.90
21246;DHT22;10781;50.928;4.440;2023-01-15T18:25:03;6.80;99.90
21246;DHT22;10781;50.928;4.440;2023-01-15T18:27:29;6.70;99.90
21246;DHT22;10781;50.928;4.440;2023-01-15T18:29:56;6.70;99.90
21246;DHT22;10781;50.928;4.440;2023-01-15T18:32:23;6.80;99.90
21246;DHT22;10781;50.928;4.440;2023-01-15T18:34:48;6.90;99.90
21246;DHT22;10781;50.928;4.440;2023-01-15T18:37:14;6.90;99.90
21246;DHT22;10781;50.928;4.440;2023-01-15T18:39:40;7.00;99.90
21246;DHT22;10781;50.928;4.440;2023-01-15T18:42:06;7.10;99.90
21246;DHT22;10781;50.928;4.440;2023-01-15T18:44:31;7.00;99.90
21246;DHT22;10781;50.928;4.440;2023-01-15T18:47:16;7.00;99.90